sensor_id;sensor_type;location;lat;lon;timestamp;temperature;humidity
12853;DHT22;6495;51.808;7.478;2023-12-20T00:02:30;8.00;99.90
12853;DHT22;6495;51.808;7.478;2023-12-20T00:04:59;7.90;99.90
12853;DHT22;6495;51.808;7.478;2023-12-20T00:07:26;7.90;99.90
12853;DHT22;6495;51.808;7.478;2023-12-20T00:09:55;7.90;99.90
12853;DHT22;6495;51.808;7.478;2023-12-20T00:12:25;7.90;99.90
12853;DHT22;6495;51.808;7.478;2023-12-20T00:14:53;7.90;99.90
12853;DHT22;6495;51.808;7.478;2023-12-20T00:17:21;7.90;99.90
12853;DHT22;6495;51.808;7.478;2023-12-20T00:19:50;7.90;99.90
12853;DHT22;6495;51.808;7.478;2023-12-20T00:22:18;7.90;99.90
12853;DHT22;6495;51.808;7.478;2023-12-20T00:24:47;7.90;99.90
12853;DHT22;6495;51.808;7.478;2023-12-20T00:27:15;7.90;99.90
12853;DHT22;6495;51.808;7.478;2023-12-20T00:29:45;7.90;99.90
12853;DHT22;6495;51.808;7.478;2023-12-20T00:32:16;7.80;99.90
12853;DHT22;6495;51.808;7.478;2023-12-20T00:34:46;7.80;99.90
12853;DHT22;6495;51.808;7.478;2023-12-20T00:37:14;7.80;99.90
12853;DHT22;6495;51.808;7.478;2023-12-20T00:39:43;7.80;99.90
12853;DHT22;6495;51.808;7.478;2023-12-20T00:42:12;7.80;99.90
12853;DHT22;6495;51.808;7.478;2023-12-20T00:44:40;7.70;99.90
12853;DHT22;6495;51.808;7.478;2023-12-20T00:47:10;7.70;99.90
12853;DHT22;6495;51.808;7.478;2023-12-20T00:49:38;7.70;99.90
12853;DHT22;6495;51.808;7.478;2023-12-20T00:52:07;7.70;99.90
12853;DHT22;6495;51.808;7.478;2023-12-20T00:54:35;7.70;99.90
12853;DHT22;6495;51.808;7.478;2023-12-20T00:57:04;7.60;99.90
12853;DHT22;6495;51.808;7.478;2023-12-20T00:59:33;7.60;99.90
12853;DHT22;6495;51.808;7.478;2023-12-20T01:02:01;7.60;99.90
12853;DHT22;6495;51.808;7.478;2023-12-20T01:04:32;7.60;99.90
12853;DHT22;6495;51.808;7.478;2023-12-20T01:07:00;7.60;99.90
12853;DHT22;6495;51.808;7.478;2023-12-20T01:09:29;7.60;99.90
12853;DHT22;6495;51.808;7.478;2023-12-20T01:11:57;7.60;99.90
12853;DHT22;6495;51.808;7.478;2023-12-20T01:14:26;7.50;99.90
12853;DHT22;6495;51.808;7.478;2023-12-20T01:16:54;7.50;99.90
12853;DHT22;6495;51.808;7.478;2023-12-20T01:19:23;7.50;99.90
12853;DHT22;6495;51.808;7.478;2023-12-20T01:21:55;7.50;99.90
12853;DHT22;6495;51.808;7.478;2023-12-20T01:24:24;7.50;99.90
12853;DHT22;6495;51.808;7.478;2023-12-20T01:26:53;7.50;99.90
12853;DHT22;6495;51.808;7.478;2023-12-20T01:29:21;7.50;99.90
12853;DHT22;6495;51.808;7.478;2023-12-20T01:31:50;7.50;99.90
12853;DHT22;6495;51.808;7.478;2023-12-20T01:34:18;7.50;99.90
12853;DHT22;6495;51.808;7.478;2023-12-20T01:36:47;7.50;99.90
12853;DHT22;6495;51.808;7.478;2023-12-20T01:39:17;7.50;99.90
12853;DHT22;6495;51.808;7.478;2023-12-20T01:41:55;7.50;99.90
12853;DHT22;6495;51.808;7.478;2023-12-20T01:44:24;7.50;99.90
12853;DHT22;6495;51.808;7.478;2023-12-20T01:46:53;7.40;99.90
12853;DHT22;6495;51.808;7.478;2023-12-20T01:49:22;7.40;99.90
12853;DHT22;6495;51.808;7.478;2023-12-20T01:51:51;7.40;99.90
12853;DHT22;6495;51.808;7.478;2023-12-20T01:54:22;7.40;99.90
12853;DHT22;6495;51.808;7.478;2023-12-20T01:56:51;7.40;99.90
12853;DHT22;6495;51.808;7.478;2023-12-20T01:59:21;7.40;99.90
12853;DHT22;6495;51.808;7.478;2023-12-20T02:01:49;7.30;99.90
12853;DHT22;6495;51.808;7.478;2023-12-20T02:04:18;7.30;99.90
12853;DHT22;6495;51.808;7.478;2023-12-20T02:06:47;7.30;99.90
12853;DHT22;6495;51.808;7.478;2023-12-20T02:09:18;7.30;99.90
12853;DHT22;6495;51.808;7.478;2023-12-20T02:11:49;7.20;99.90
12853;DHT22;6495;51.808;7.478;2023-12-20T02:14:17;7.20;99.90
12853;DHT22;6495;51.808;7.478;2023-12-20T02:16:46;7.20;99.90
12853;DHT22;6495;51.808;7.478;2023-12-20T02:19:14;7.20;99.90
12853;DHT22;6495;51.808;7.478;2023-12-20T02:21:45;7.20;99.90
12853;DHT22;6495;51.808;7.478;2023-12-20T02:24:14;7.20;99.90
12853;DHT22;6495;51.808;7.478;2023-12-20T02:26:42;7.10;99.90
12853;DHT22;6495;51.808;7.478;2023-12-20T02:29:13;7.10;99.90
12853;DHT22;6495;51.808;7.478;2023-12-20T02:31:41;7.10;99.90
12853;DHT22;6495;51.808;7.478;2023-12-20T02:34:10;7.10;99.90
12853;DHT22;6495;51.808;7.478;2023-12-20T02:36:38;7.10;99.90
12853;DHT22;6495;51.808;7.478;2023-12-20T02:39:08;7.10;99.90
12853;DHT22;6495;51.808;7.478;2023-12-20T02:41:36;7.10;99.90
12853;DHT22;6495;51.808;7.478;2023-12-20T02:44:05;7.10;99.90
12853;DHT22;6495;51.808;7.478;2023-12-20T02:46:33;7.10;99.90
12853;DHT22;6495;51.808;7.478;2023-12-20T02:49:01;7.10;99.90
12853;DHT22;6495;51.808;7.478;2023-12-20T02:51:30;7.10;99.90
12853;DHT22;6495;51.808;7.478;2023-12-20T02:53:58;7.10;99.90
12853;DHT22;6495;51.808;7.478;2023-12-20T02:56:28;7.00;99.90
12853;DHT22;6495;51.808;7.478;2023-12-20T02:58:56;7.00;99.90
12853;DHT22;6495;51.808;7.478;2023-12-20T03:01:24;7.00;99.90
12853;DHT22;6495;51.808;7.478;2023-12-20T03:03:53;7.00;99.90
12853;DHT22;6495;51.808;7.478;2023-12-20T03:06:21;7.00;99.90
12853;DHT22;6495;51.808;7.478;2023-12-20T03:08:50;6.90;99.90
12853;DHT22;6495;51.808;7.478;2023-12-20T03:11:21;6.90;99.90
12853;DHT22;6495;51.808;7.478;2023-12-20T03:13:55;6.90;99.90
12853;DHT22;6495;51.808;7.478;2023-12-20T03:16:24;6.90;99.90
12853;DHT22;6495;51.808;7.478;2023-12-20T03:18:52;6.90;99.90
12853;DHT22;6495;51.808;7.478;2023-12-20T03:21:21;6.90;99.90
12853;DHT22;6495;51.808;7.478;2023-12-20T03:23:49;6.90;99.90
12853;DHT22;6495;51.808;7.478;2023-12-20T03:26:17;6.90;99.90
12853;DHT22;6495;51.808;7.478;2023-12-20T03:28:46;6.80;99.90
12853;DHT22;6495;51.808;7.478;2023-12-20T03:31:16;6.80;99.90
12853;DHT22;6495;51.808;7.478;2023-12-20T03:33:45;6.80;99.90
12853;DHT22;6495;51.808;7.478;2023-12-20T03:36:13;6.80;99.90
12853;DHT22;6495;51.808;7.478;2023-12-20T03:38:42;6.80;99.90
12853;DHT22;6495;51.808;7.478;2023-12-20T03:41:10;6.80;99.90
12853;DHT22;6495;51.808;7.478;2023-12-20T03:43:39;6.80;99.90
12853;DHT22;6495;51.808;7.478;2023-12-20T03:46:08;6.80;99.90
12853;DHT22;6495;51.808;7.478;2023-12-20T03:48:38;6.80;99.90
12853;DHT22;6495;51.808;7.478;2023-12-20T03:51:06;6.70;99.90
12853;DHT22;6495;51.808;7.478;2023-12-20T03:53:34;6.70;99.90
12853;DHT22;6495;51.808;7.478;2023-12-20T03:56:03;6.70;99.90
12853;DHT22;6495;51.808;7.478;2023-12-20T03:58:32;6.70;99.90
12853;DHT22;6495;51.808;7.478;2023-12-20T04:01:00;6.70;99.90
12853;DHT22;6495;51.808;7.478;2023-12-20T04:03:29;6.70;99.90
12853;DHT22;6495;51.808;7.478;2023-12-20T04:05:59;6.70;99.90
12853;DHT22;6495;51.808;7.478;2023-12-20T04:08:27;6.70;99.90
12853;DHT22;6495;51.808;7.478;2023-12-20T04:10:56;6.70;99.90
12853;DHT22;6495;51.808;7.478;2023-12-20T04:13:24;6.60;99.90
12853;DHT22;6495;51.808;7.478;2023-12-20T04:15:53;6.60;99.90
12853;DHT22;6495;51.808;7.478;2023-12-20T04:18:21;6.60;99.90
12853;DHT22;6495;51.808;7.478;2023-12-20T04:20:49;6.60;99.90
12853;DHT22;6495;51.808;7.478;2023-12-20T04:23:19;6.60;99.90
12853;DHT22;6495;51.808;7.478;2023-12-20T04:25:48;6.60;99.90
12853;DHT22;6495;51.808;7.478;2023-12-20T04:28:16;6.60;99.90
12853;DHT22;6495;51.808;7.478;2023-12-20T04:30:45;6.60;99.90
12853;DHT22;6495;51.808;7.478;2023-12-20T04:33:13;6.60;99.90
12853;DHT22;6495;51.808;7.478;2023-12-20T04:35:42;6.60;99.90
12853;DHT22;6495;51.808;7.478;2023-12-20T04:38:12;6.60;99.90
12853;DHT22;6495;51.808;7.478;2023-12-20T04:40:42;6.50;99.90
12853;DHT22;6495;51.808;7.478;2023-12-20T04:43:10;6.50;99.90
12853;DHT22;6495;51.808;7.478;2023-12-20T04:45:39;6.50;99.90
12853;DHT22;6495;51.808;7.478;2023-12-20T04:48:07;6.50;99.90
12853;DHT22;6495;51.808;7.478;2023-12-20T04:50:36;6.50;99.90
12853;DHT22;6495;51.808;7.478;2023-12-20T04:53:04;6.50;99.90
12853;DHT22;6495;51.808;7.478;2023-12-20T04:55:34;6.50;99.90
12853;DHT22;6495;51.808;7.478;2023-12-20T04:58:05;6.50;99.90
12853;DHT22;6495;51.808;7.478;2023-12-20T05:00:33;6.50;99.90
12853;DHT22;6495;51.808;7.478;2023-12-20T05:03:02;6.50;99.90
12853;DHT22;6495;51.808;7.478;2023-12-20T05:05:30;6.50;99.90
12853;DHT22;6495;51.808;7.478;2023-12-20T05:07:59;6.50;99.90
12853;DHT22;6495;51.808;7.478;2023-12-20T05:10:28;6.50;99.90
12853;DHT22;6495;51.808;7.478;2023-12-20T05:12:56;6.50;99.90
12853;DHT22;6495;51.808;7.478;2023-12-20T05:15:26;6.50;99.90
12853;DHT22;6495;51.808;7.478;2023-12-20T05:17:54;6.50;99.90
12853;DHT22;6495;51.808;7.478;2023-12-20T05:20:32;6.50;99.90
12853;DHT22;6495;51.808;7.478;2023-12-20T05:23:04;6.50;99.90
12853;DHT22;6495;51.808;7.478;2023-12-20T05:25:35;6.50;99.90
12853;DHT22;6495;51.808;7.478;2023-12-20T05:28:06;6.50;99.90
12853;DHT22;6495;51.808;7.478;2023-12-20T05:30:42;6.50;99.90
12853;DHT22;6495;51.808;7.478;2023-12-20T05:33:11;6.40;99.90
12853;DHT22;6495;51.808;7.478;2023-12-20T05:35:39;6.50;99.90
12853;DHT22;6495;51.808;7.478;2023-12-20T05:38:08;6.40;99.90
12853;DHT22;6495;51.808;7.478;2023-12-20T05:40:36;6.40;99.90
12853;DHT22;6495;51.808;7.478;2023-12-20T05:43:05;6.50;99.90
12853;DHT22;6495;51.808;7.478;2023-12-20T05:45:36;6.40;99.90
12853;DHT22;6495;51.808;7.478;2023-12-20T05:48:06;6.40;99.90
12853;DHT22;6495;51.808;7.478;2023-12-20T05:50:35;6.40;99.90
12853;DHT22;6495;51.808;7.478;2023-12-20T05:53:04;6.40;99.90
12853;DHT22;6495;51.808;7.478;2023-12-20T05:55:33;6.50;99.90
12853;DHT22;6495;51.808;7.478;2023-12-20T05:58:01;6.40;99.90
12853;DHT22;6495;51.808;7.478;2023-12-20T06:00:30;6.40;99.90
12853;DHT22;6495;51.808;7.478;2023-12-20T06:02:58;6.50;99.90
12853;DHT22;6495;51.808;7.478;2023-12-20T06:05:29;6.50;99.90
12853;DHT22;6495;51.808;7.478;2023-12-20T06:07:58;6.50;99.90
12853;DHT22;6495;51.808;7.478;2023-12-20T06:10:29;6.50;99.90
12853;DHT22;6495;51.808;7.478;2023-12-20T06:12:58;6.50;99.90
12853;DHT22;6495;51.808;7.478;2023-12-20T06:15:30;6.50;99.90
12853;DHT22;6495;51.808;7.478;2023-12-20T06:17:58;6.50;99.90
12853;DHT22;6495;51.808;7.478;2023-12-20T06:20:38;6.50;99.90
12853;DHT22;6495;51.808;7.478;2023-12-20T06:23:07;6.50;99.90
12853;DHT22;6495;51.808;7.478;2023-12-20T06:25:35;6.50;99.90
12853;DHT22;6495;51.808;7.478;2023-12-20T06:28:04;6.50;99.90
12853;DHT22;6495;51.808;7.478;2023-12-20T06:30:33;6.50;99.90
12853;DHT22;6495;51.808;7.478;2023-12-20T06:33:05;6.50;99.90
12853;DHT22;6495;51.808;7.478;2023-12-20T06:35:37;6.50;99.90
12853;DHT22;6495;51.808;7.478;2023-12-20T06:38:06;6.50;99.90
12853;DHT22;6495;51.808;7.478;2023-12-20T06:40:38;6.50;99.90
12853;DHT22;6495;51.808;7.478;2023-12-20T06:43:06;6.50;99.90
12853;DHT22;6495;51.808;7.478;2023-12-20T06:45:47;6.50;99.90
12853;DHT22;6495;51.808;7.478;2023-12-20T06:48:15;6.50;99.90
12853;DHT22;6495;51.808;7.478;2023-12-20T06:50:47;6.50;99.90
12853;DHT22;6495;51.808;7.478;2023-12-20T06:53:15;6.50;99.90
12853;DHT22;6495;51.808;7.478;2023-12-20T06:55:43;6.50;99.90
12853;DHT22;6495;51.808;7.478;2023-12-20T06:58:12;6.50;99.90
12853;DHT22;6495;51.808;7.478;2023-12-20T07:00:41;6.50;99.90
12853;DHT22;6495;51.808;7.478;2023-12-20T07:03:10;6.60;99.90
12853;DHT22;6495;51.808;7.478;2023-12-20T07:05:40;6.50;99.90
12853;DHT22;6495;51.808;7.478;2023-12-20T07:08:10;6.60;99.90
12853;DHT22;6495;51.808;7.478;2023-12-20T07:10:45;6.60;99.90
12853;DHT22;6495;51.808;7.478;2023-12-20T07:13:15;6.60;99.90
12853;DHT22;6495;51.808;7.478;2023-12-20T07:15:44;6.60;99.90
12853;DHT22;6495;51.808;7.478;2023-12-20T07:18:12;6.60;99.90
12853;DHT22;6495;51.808;7.478;2023-12-20T07:20:41;6.60;99.90
12853;DHT22;6495;51.808;7.478;2023-12-20T07:23:11;6.60;99.90
12853;DHT22;6495;51.808;7.478;2023-12-20T07:25:40;6.60;99.90
12853;DHT22;6495;51.808;7.478;2023-12-20T07:28:08;6.60;99.90
12853;DHT22;6495;51.808;7.478;2023-12-20T07:30:40;6.60;99.90
12853;DHT22;6495;51.808;7.478;2023-12-20T07:33:09;6.60;99.90
12853;DHT22;6495;51.808;7.478;2023-12-20T07:35:39;6.60;99.90
12853;DHT22;6495;51.808;7.478;2023-12-20T07:38:08;6.70;99.90
12853;DHT22;6495;51.808;7.478;2023-12-20T07:40:37;6.70;99.90
12853;DHT22;6495;51.808;7.478;2023-12-20T07:43:11;6.70;99.90
12853;DHT22;6495;51.808;7.478;2023-12-20T07:45:39;6.70;99.90
12853;DHT22;6495;51.808;7.478;2023-12-20T07:48:12;6.70;99.90
12853;DHT22;6495;51.808;7.478;2023-12-20T07:50:41;6.70;99.90
12853;DHT22;6495;51.808;7.478;2023-12-20T07:53:09;6.70;99.90
12853;DHT22;6495;51.808;7.478;2023-12-20T07:55:39;6.70;99.90
12853;DHT22;6495;51.808;7.478;2023-12-20T07:58:10;6.70;99.90
12853;DHT22;6495;51.808;7.478;2023-12-20T08:00:38;6.70;99.90
12853;DHT22;6495;51.808;7.478;2023-12-20T08:03:07;6.70;99.90
12853;DHT22;6495;51.808;7.478;2023-12-20T08:05:35;6.70;99.90
12853;DHT22;6495;51.808;7.478;2023-12-20T08:08:07;6.70;99.90
12853;DHT22;6495;51.808;7.478;2023-12-20T08:10:35;6.70;99.90
12853;DHT22;6495;51.808;7.478;2023-12-20T08:13:05;6.70;99.90
12853;DHT22;6495;51.808;7.478;2023-12-20T08:15:34;6.70;99.90
12853;DHT22;6495;51.808;7.478;2023-12-20T08:18:04;6.70;99.90
12853;DHT22;6495;51.808;7.478;2023-12-20T08:20:33;6.70;99.90
12853;DHT22;6495;51.808;7.478;2023-12-20T08:23:07;6.80;99.90
12853;DHT22;6495;51.808;7.478;2023-12-20T08:25:35;6.80;99.90
12853;DHT22;6495;51.808;7.478;2023-12-20T08:28:05;6.80;99.90
12853;DHT22;6495;51.808;7.478;2023-12-20T08:30:34;6.80;99.90
12853;DHT22;6495;51.808;7.478;2023-12-20T08:33:03;6.80;99.90
12853;DHT22;6495;51.808;7.478;2023-12-20T08:35:32;6.80;99.90
12853;DHT22;6495;51.808;7.478;2023-12-20T08:38:00;6.80;99.90
12853;DHT22;6495;51.808;7.478;2023-12-20T08:40:29;6.80;99.90
12853;DHT22;6495;51.808;7.478;2023-12-20T08:42:57;6.90;99.90
12853;DHT22;6495;51.808;7.478;2023-12-20T08:45:27;6.90;99.90
12853;DHT22;6495;51.808;7.478;2023-12-20T08:47:56;6.90;99.90
12853;DHT22;6495;51.808;7.478;2023-12-20T08:50:31;6.90;99.90
12853;DHT22;6495;51.808;7.478;2023-12-20T08:52:59;6.90;99.90
12853;DHT22;6495;51.808;7.478;2023-12-20T08:55:28;6.90;99.90
12853;DHT22;6495;51.808;7.478;2023-12-20T08:57:58;6.90;99.90
12853;DHT22;6495;51.808;7.478;2023-12-20T09:00:31;6.90;99.90
12853;DHT22;6495;51.808;7.478;2023-12-20T09:02:59;6.90;99.90
12853;DHT22;6495;51.808;7.478;2023-12-20T09:05:28;6.90;99.90
12853;DHT22;6495;51.808;7.478;2023-12-20T09:07:57;6.90;99.90
12853;DHT22;6495;51.808;7.478;2023-12-20T09:10:25;6.90;99.90
12853;DHT22;6495;51.808;7.478;2023-12-20T09:12:54;6.90;99.90
12853;DHT22;6495;51.808;7.478;2023-12-20T09:15:23;6.90;99.90
12853;DHT22;6495;51.808;7.478;2023-12-20T09:17:53;6.90;99.90
12853;DHT22;6495;51.808;7.478;2023-12-20T09:20:22;6.90;99.90
12853;DHT22;6495;51.808;7.478;2023-12-20T09:22:51;6.90;99.90
12853;DHT22;6495;51.808;7.478;2023-12-20T09:25:19;6.90;99.90
12853;DHT22;6495;51.808;7.478;2023-12-20T09:27:49;6.90;99.90
12853;DHT22;6495;51.808;7.478;2023-12-20T09:30:18;7.00;99.90
12853;DHT22;6495;51.808;7.478;2023-12-20T09:32:55;7.00;99.90
12853;DHT22;6495;51.808;7.478;2023-12-20T09:35:23;7.00;99.90
12853;DHT22;6495;51.808;7.478;2023-12-20T09:37:54;7.00;99.90
12853;DHT22;6495;51.808;7.478;2023-12-20T09:40:26;7.00;99.90
12853;DHT22;6495;51.808;7.478;2023-12-20T09:42:57;7.00;99.90
12853;DHT22;6495;51.808;7.478;2023-12-20T09:45:26;7.00;99.90
12853;DHT22;6495;51.808;7.478;2023-12-20T09:47:58;7.00;99.90
12853;DHT22;6495;51.808;7.478;2023-12-20T09:50:26;7.00;99.90
12853;DHT22;6495;51.808;7.478;2023-12-20T09:52:57;7.10;99.90
12853;DHT22;6495;51.808;7.478;2023-12-20T09:55:27;7.10;99.90
12853;DHT22;6495;51.808;7.478;2023-12-20T09:57:57;7.10;99.90
12853;DHT22;6495;51.808;7.478;2023-12-20T10:00:25;7.10;99.90
12853;DHT22;6495;51.808;7.478;2023-12-20T10:02:58;7.10;99.90
12853;DHT22;6495;51.808;7.478;2023-12-20T10:05:29;7.10;99.90
12853;DHT22;6495;51.808;7.478;2023-12-20T10:08:00;7.10;99.90
12853;DHT22;6495;51.808;7.478;2023-12-20T10:10:29;7.10;99.90
12853;DHT22;6495;51.808;7.478;2023-12-20T10:13:12;7.10;99.90
12853;DHT22;6495;51.808;7.478;2023-12-20T10:15:41;7.10;99.90
12853;DHT22;6495;51.808;7.478;2023-12-20T10:18:12;7.10;99.90
12853;DHT22;6495;51.808;7.478;2023-12-20T10:20:41;7.10;99.90
12853;DHT22;6495;51.808;7.478;2023-12-20T10:23:16;7.10;99.90
12853;DHT22;6495;51.808;7.478;2023-12-20T10:25:56;7.10;99.90
12853;DHT22;6495;51.808;7.478;2023-12-20T10:28:33;7.10;99.90
12853;DHT22;6495;51.808;7.478;2023-12-20T10:31:02;7.10;99.90
12853;DHT22;6495;51.808;7.478;2023-12-20T10:33:33;7.20;99.90
12853;DHT22;6495;51.808;7.478;2023-12-20T10:36:02;7.20;99.90
12853;DHT22;6495;51.808;7.478;2023-12-20T10:38:31;7.20;99.90
12853;DHT22;6495;51.808;7.478;2023-12-20T10:41:01;7.10;99.90
12853;DHT22;6495;51.808;7.478;2023-12-20T10:43:34;7.20;99.90
12853;DHT22;6495;51.808;7.478;2023-12-20T10:46:03;7.10;99.90
12853;DHT22;6495;51.808;7.478;2023-12-20T10:48:35;7.20;99.90
12853;DHT22;6495;51.808;7.478;2023-12-20T10:51:05;7.20;99.90
12853;DHT22;6495;51.808;7.478;2023-12-20T10:53:39;7.20;99.90
12853;DHT22;6495;51.808;7.478;2023-12-20T10:56:16;7.20;99.90
12853;DHT22;6495;51.808;7.478;2023-12-20T10:58:50;7.20;99.90
12853;DHT22;6495;51.808;7.478;2023-12-20T11:01:19;7.20;99.90
12853;DHT22;6495;51.808;7.478;2023-12-20T11:03:52;7.20;99.90
12853;DHT22;6495;51.808;7.478;2023-12-20T11:06:29;7.20;99.90
12853;DHT22;6495;51.808;7.478;2023-12-20T11:09:17;7.20;99.90
12853;DHT22;6495;51.808;7.478;2023-12-20T11:11:58;7.10;99.90
12853;DHT22;6495;51.808;7.478;2023-12-20T11:14:38;7.20;99.90
12853;DHT22;6495;51.808;7.478;2023-12-20T11:17:10;7.10;99.90
12853;DHT22;6495;51.808;7.478;2023-12-20T11:20:04;7.20;99.90
12853;DHT22;6495;51.808;7.478;2023-12-20T11:22:35;7.10;99.90
12853;DHT22;6495;51.808;7.478;2023-12-20T11:25:19;7.10;99.90
12853;DHT22;6495;51.808;7.478;2023-12-20T11:28:07;7.10;99.90
12853;DHT22;6495;51.808;7.478;2023-12-20T11:30:53;7.10;99.90
12853;DHT22;6495;51.808;7.478;2023-12-20T11:33:38;7.10;99.90
12853;DHT22;6495;51.808;7.478;2023-12-20T11:36:15;7.20;99.90
12853;DHT22;6495;51.808;7.478;2023-12-20T11:38:56;7.10;99.90
12853;DHT22;6495;51.808;7.478;2023-12-20T11:41:25;7.20;99.90
12853;DHT22;6495;51.808;7.478;2023-12-20T11:43:55;7.20;99.90
12853;DHT22;6495;51.808;7.478;2023-12-20T11:46:25;7.20;99.90
12853;DHT22;6495;51.808;7.478;2023-12-20T11:48:59;7.20;99.90
12853;DHT22;6495;51.808;7.478;2023-12-20T11:51:31;7.30;99.90
12853;DHT22;6495;51.808;7.478;2023-12-20T11:54:02;7.30;99.90
12853;DHT22;6495;51.808;7.478;2023-12-20T11:56:30;7.30;99.90
12853;DHT22;6495;51.808;7.478;2023-12-20T11:59:00;7.30;99.90
12853;DHT22;6495;51.808;7.478;2023-12-20T12:01:49;7.30;99.90
12853;DHT22;6495;51.808;7.478;2023-12-20T12:04:26;7.40;99.90
12853;DHT22;6495;51.808;7.478;2023-12-20T12:06:57;7.40;99.90
12853;DHT22;6495;51.808;7.478;2023-12-20T12:09:25;7.30;99.90
12853;DHT22;6495;51.808;7.478;2023-12-20T12:11:54;7.40;99.90
12853;DHT22;6495;51.808;7.478;2023-12-20T12:14:23;7.40;99.90
12853;DHT22;6495;51.808;7.478;2023-12-20T12:16:52;7.40;99.90
12853;DHT22;6495;51.808;7.478;2023-12-20T12:19:24;7.40;99.90
12853;DHT22;6495;51.808;7.478;2023-12-20T12:22:05;7.40;99.90
12853;DHT22;6495;51.808;7.478;2023-12-20T12:24:40;7.40;99.90
12853;DHT22;6495;51.808;7.478;2023-12-20T12:27:09;7.40;99.90
12853;DHT22;6495;51.808;7.478;2023-12-20T12:29:38;7.40;99.90
12853;DHT22;6495;51.808;7.478;2023-12-20T12:32:07;7.40;99.90
12853;DHT22;6495;51.808;7.478;2023-12-20T12:34:37;7.40;99.90
12853;DHT22;6495;51.808;7.478;2023-12-20T12:37:06;7.50;99.90
12853;DHT22;6495;51.808;7.478;2023-12-20T12:39:35;7.50;99.90
12853;DHT22;6495;51.808;7.478;2023-12-20T12:42:04;7.50;99.90
12853;DHT22;6495;51.808;7.478;2023-12-20T12:44:32;7.60;99.90
12853;DHT22;6495;51.808;7.478;2023-12-20T12:47:01;7.60;99.90
12853;DHT22;6495;51.808;7.478;2023-12-20T12:49:30;7.60;99.90
12853;DHT22;6495;51.808;7.478;2023-12-20T12:51:58;7.60;99.90
12853;DHT22;6495;51.808;7.478;2023-12-20T12:54:27;7.60;99.90
12853;DHT22;6495;51.808;7.478;2023-12-20T12:56:56;7.70;99.90
12853;DHT22;6495;51.808;7.478;2023-12-20T12:59:25;7.70;99.90
12853;DHT22;6495;51.808;7.478;2023-12-20T13:01:53;7.70;99.90
12853;DHT22;6495;51.808;7.478;2023-12-20T13:04:22;7.70;99.90
12853;DHT22;6495;51.808;7.478;2023-12-20T13:06:50;7.70;99.90
12853;DHT22;6495;51.808;7.478;2023-12-20T13:09:19;7.70;99.90
12853;DHT22;6495;51.808;7.478;2023-12-20T13:11:49;7.70;99.90
12853;DHT22;6495;51.808;7.478;2023-12-20T13:14:18;7.80;99.90
12853;DHT22;6495;51.808;7.478;2023-12-20T13:16:46;7.80;99.90
12853;DHT22;6495;51.808;7.478;2023-12-20T13:19:14;7.80;99.90
12853;DHT22;6495;51.808;7.478;2023-12-20T13:21:43;7.80;99.90
12853;DHT22;6495;51.808;7.478;2023-12-20T13:24:12;7.80;99.90
12853;DHT22;6495;51.808;7.478;2023-12-20T13:26:40;7.80;99.90
12853;DHT22;6495;51.808;7.478;2023-12-20T13:29:10;7.80;99.90
12853;DHT22;6495;51.808;7.478;2023-12-20T13:31:39;7.80;99.90
12853;DHT22;6495;51.808;7.478;2023-12-20T13:34:08;7.80;99.90
12853;DHT22;6495;51.808;7.478;2023-12-20T13:36:36;7.80;99.90
12853;DHT22;6495;51.808;7.478;2023-12-20T13:39:05;7.80;99.90
12853;DHT22;6495;51.808;7.478;2023-12-20T13:41:33;7.80;99.90
12853;DHT22;6495;51.808;7.478;2023-12-20T13:44:02;7.90;99.90
12853;DHT22;6495;51.808;7.478;2023-12-20T13:46:32;7.90;99.90
12853;DHT22;6495;51.808;7.478;2023-12-20T13:49:02;7.90;99.90
12853;DHT22;6495;51.808;7.478;2023-12-20T13:51:32;7.90;99.90
12853;DHT22;6495;51.808;7.478;2023-12-20T13:54:00;7.90;99.90
12853;DHT22;6495;51.808;7.478;2023-12-20T13:56:29;7.90;99.90
12853;DHT22;6495;51.808;7.478;2023-12-20T13:59:02;7.90;99.90
12853;DHT22;6495;51.808;7.478;2023-12-20T14:01:32;7.90;99.90
12853;DHT22;6495;51.808;7.478;2023-12-20T14:04:01;7.90;99.90
12853;DHT22;6495;51.808;7.478;2023-12-20T14:06:29;7.90;99.90
12853;DHT22;6495;51.808;7.478;2023-12-20T14:08:58;7.90;99.90
12853;DHT22;6495;51.808;7.478;2023-12-20T14:11:27;7.90;99.90
12853;DHT22;6495;51.808;7.478;2023-12-20T14:13:56;7.90;99.90
12853;DHT22;6495;51.808;7.478;2023-12-20T14:16:25;7.90;99.90
12853;DHT22;6495;51.808;7.478;2023-12-20T14:18:54;7.90;99.90
12853;DHT22;6495;51.808;7.478;2023-12-20T14:21:24;7.90;99.90
12853;DHT22;6495;51.808;7.478;2023-12-20T14:23:53;7.90;99.90
12853;DHT22;6495;51.808;7.478;2023-12-20T14:26:21;7.90;99.90
12853;DHT22;6495;51.808;7.478;2023-12-20T14:28:52;7.90;99.90
12853;DHT22;6495;51.808;7.478;2023-12-20T14:31:21;7.90;99.90
12853;DHT22;6495;51.808;7.478;2023-12-20T14:33:52;7.90;99.90
12853;DHT22;6495;51.808;7.478;2023-12-20T14:36:21;7.90;99.90
12853;DHT22;6495;51.808;7.478;2023-12-20T14:38:50;7.80;99.90
12853;DHT22;6495;51.808;7.478;2023-12-20T14:41:19;7.80;99.90
12853;DHT22;6495;51.808;7.478;2023-12-20T14:43:51;7.80;99.90
12853;DHT22;6495;51.808;7.478;2023-12-20T14:46:20;7.80;99.90
12853;DHT22;6495;51.808;7.478;2023-12-20T14:48:48;7.80;99.90
12853;DHT22;6495;51.808;7.478;2023-12-20T14:51:22;7.80;99.90
12853;DHT22;6495;51.808;7.478;2023-12-20T14:53:51;7.80;99.90
12853;DHT22;6495;51.808;7.478;2023-12-20T14:56:20;7.80;99.90
12853;DHT22;6495;51.808;7.478;2023-12-20T14:58:48;7.80;99.90
12853;DHT22;6495;51.808;7.478;2023-12-20T15:01:16;7.80;99.90
12853;DHT22;6495;51.808;7.478;2023-12-20T15:03:48;7.80;99.90
12853;DHT22;6495;51.808;7.478;2023-12-20T15:06:21;7.80;99.90
12853;DHT22;6495;51.808;7.478;2023-12-20T15:08:49;7.80;99.90
12853;DHT22;6495;51.808;7.478;2023-12-20T15:11:18;7.80;99.90
12853;DHT22;6495;51.808;7.478;2023-12-20T15:13:47;7.80;99.90
12853;DHT22;6495;51.808;7.478;2023-12-20T15:16:22;7.80;99.90
12853;DHT22;6495;51.808;7.478;2023-12-20T15:18:50;7.80;99.90
12853;DHT22;6495;51.808;7.478;2023-12-20T15:21:22;7.80;99.90
12853;DHT22;6495;51.808;7.478;2023-12-20T15:24:01;7.80;99.90
12853;DHT22;6495;51.808;7.478;2023-12-20T15:26:40;7.80;99.90
12853;DHT22;6495;51.808;7.478;2023-12-20T15:29:09;7.80;99.90
12853;DHT22;6495;51.808;7.478;2023-12-20T15:31:42;7.80;99.90
12853;DHT22;6495;51.808;7.478;2023-12-20T15:34:11;7.80;99.90
12853;DHT22;6495;51.808;7.478;2023-12-20T15:36:43;7.80;99.90
12853;DHT22;6495;51.808;7.478;2023-12-20T15:39:12;7.80;99.90
12853;DHT22;6495;51.808;7.478;2023-12-20T15:41:41;7.80;99.90
12853;DHT22;6495;51.808;7.478;2023-12-20T15:44:11;7.70;99.90
12853;DHT22;6495;51.808;7.478;2023-12-20T15:46:39;7.80;99.90
12853;DHT22;6495;51.808;7.478;2023-12-20T15:49:08;7.70;99.90
12853;DHT22;6495;51.808;7.478;2023-12-20T15:51:38;7.70;99.90
12853;DHT22;6495;51.808;7.478;2023-12-20T15:54:08;7.80;99.90
12853;DHT22;6495;51.808;7.478;2023-12-20T15:56:37;7.70;99.90
12853;DHT22;6495;51.808;7.478;2023-12-20T15:59:08;7.70;99.90
12853;DHT22;6495;51.808;7.478;2023-12-20T16:01:37;7.70;99.90
12853;DHT22;6495;51.808;7.478;2023-12-20T16:04:05;7.80;99.90
12853;DHT22;6495;51.808;7.478;2023-12-20T16:06:34;7.70;99.90
12853;DHT22;6495;51.808;7.478;2023-12-20T16:09:07;7.70;99.90
12853;DHT22;6495;51.808;7.478;2023-12-20T16:11:36;7.70;99.90
12853;DHT22;6495;51.808;7.478;2023-12-20T16:14:06;7.70;99.90
12853;DHT22;6495;51.808;7.478;2023-12-20T16:16:39;7.70;99.90
12853;DHT22;6495;51.808;7.478;2023-12-20T16:19:08;7.70;99.90
12853;DHT22;6495;51.808;7.478;2023-12-20T16:21:37;7.70;99.90